Time;durP1;ratioP1;P1;durP2;ratioP2;P2;SDS_P1;SDS_P2;PMS_P1;PMS_P2;Temp;Humidity;BMP_temperature;BMP_pressure;BME280_temperature;BME280_humidity;BME280_pressure;Samples;Min_cycle;Max_cycle;Signal;HPM_P1;HPM_P2
2023/07/28 00:02:14;;;;;;;5.07;4.67;;;;;;;14.68;100.00;96314.75;5011255;28;20240;-64
2023/07/28 00:04:42;;;;;;;5.30;4.90;;;;;;;14.68;100.00;96318.25;5012107;28;20196;-62
2023/07/28 00:07:11;;;;;;;5.70;5.17;;;;;;;14.64;100.00;96305.59;4997005;28;20236;-62
2023/07/28 00:09:39;;;;;;;5.43;5.07;;;;;;;14.69;100.00;96322.53;4915731;28;20231;-62
2023/07/28 00:12:09;;;;;;;4.83;4.60;;;;;;;14.73;100.00;96320.22;5013063;28;20228;-62
2023/07/28 00:14:37;;;;;;;4.90;4.60;;;;;;;14.76;100.00;96317.94;5011982;28;20272;-62
2023/07/28 00:17:05;;;;;;;5.10;4.80;;;;;;;14.75;100.00;96320.81;5018443;28;20205;-63
2023/07/28 00:19:32;;;;;;;4.80;4.40;;;;;;;14.76;100.00;96319.78;5010926;28;20211;-62
2023/07/28 00:22:00;;;;;;;5.10;4.63;;;;;;;14.81;100.00;96319.91;5015411;28;20216;-62
2023/07/28 00:24:28;;;;;;;6.00;5.37;;;;;;;14.78;100.00;96315.03;4954536;28;20715;-62
2023/07/28 00:26:56;;;;;;;5.87;5.23;;;;;;;14.79;100.00;96321.19;5010121;28;20448;-62
2023/07/28 00:29:25;;;;;;;5.80;5.40;;;;;;;14.80;100.00;96318.28;5013326;28;20213;-63
2023/07/28 00:31:53;;;;;;;4.80;4.47;;;;;;;14.79;100.00;96314.00;5011503;28;20286;-62
2023/07/28 00:34:21;;;;;;;5.60;5.10;;;;;;;14.73;100.00;96312.25;5011879;28;20208;-63
2023/07/28 00:36:49;;;;;;;5.23;4.83;;;;;;;14.71;100.00;96309.00;5013664;28;20228;-63
2023/07/28 00:39:17;;;;;;;5.23;4.87;;;;;;;14.78;100.00;96315.03;4891984;28;20343;-63
2023/07/28 00:41:44;;;;;;;5.07;4.77;;;;;;;14.66;100.00;96309.69;5011477;28;20243;-62
2023/07/28 00:44:14;;;;;;;5.37;5.07;;;;;;;14.72;100.00;96308.78;5011394;28;20214;-61
2023/07/28 00:46:43;;;;;;;5.10;4.80;;;;;;;14.52;100.00;96311.75;5014151;28;20290;-63
2023/07/28 00:49:11;;;;;;;6.50;5.43;;;;;;;14.50;100.00;96305.84;5007769;28;20251;-63
2023/07/28 00:51:39;;;;;;;6.37;5.80;;;;;;;14.57;100.00;96319.03;5012506;28;20217;-63
2023/07/28 00:54:07;;;;;;;5.37;4.87;;;;;;;14.53;100.00;96312.53;5009429;28;20208;-63
2023/07/28 00:56:35;;;;;;;5.87;5.47;;;;;;;14.47;100.00;96314.31;5015021;28;20222;-63
2023/07/28 00:59:03;;;;;;;5.80;5.30;;;;;;;14.57;100.00;96314.53;4954239;28;20205;-63
2023/07/28 01:01:30;;;;;;;6.07;5.60;;;;;;;14.53;100.00;96304.56;5013754;28;20224;-63
2023/07/28 01:04:00;;;;;;;5.23;4.93;;;;;;;14.55;100.00;96308.63;5010040;28;20239;-64
2023/07/28 01:06:32;;;;;;;6.27;5.67;;;;;;;14.47;100.00;96306.31;5013856;28;20204;-64
2023/07/28 01:09:04;;;;;;;6.40;5.90;;;;;;;14.30;100.00;96301.63;4947366;28;20622;-62
2023/07/28 01:11:32;;;;;;;6.47;6.07;;;;;;;14.31;100.00;96303.25;5012412;28;20576;-63
2023/07/28 01:14:00;;;;;;;7.73;7.10;;;;;;;14.37;100.00;96301.53;4887860;28;20212;-63
2023/07/28 01:16:28;;;;;;;6.87;6.43;;;;;;;14.37;100.00;96298.03;5016178;28;20204;-64
2023/07/28 01:18:55;;;;;;;8.33;7.17;;;;;;;14.29;100.00;96300.00;5006822;28;20291;-62
2023/07/28 01:21:27;;;;;;;7.20;6.13;;;;;;;14.27;100.00;96293.31;5012135;28;20231;-63
2023/07/28 01:24:01;;;;;;;6.63;6.13;;;;;;;14.27;100.00;96290.63;5011477;28;20283;-63
2023/07/28 01:26:35;;;;;;;6.80;6.17;;;;;;;14.31;100.00;96307.78;5012309;28;20205;-64
2023/07/28 01:29:04;;;;;;;6.70;6.10;;;;;;;14.31;100.00;96305.91;4896882;28;20573;-63
2023/07/28 01:31:32;;;;;;;6.57;6.10;;;;;;;14.35;100.00;96303.63;5020374;28;20221;-63
2023/07/28 01:34:00;;;;;;;6.80;6.30;;;;;;;14.41;100.00;96304.56;5013874;28;20777;-64
2023/07/28 01:36:28;;;;;;;6.80;6.17;;;;;;;14.35;100.00;96292.13;5010996;28;20207;-63
2023/07/28 01:38:56;;;;;;;6.57;6.17;;;;;;;14.36;100.00;96294.59;5006447;28;20212;-63
2023/07/28 01:41:24;;;;;;;6.90;6.13;;;;;;;14.39;100.00;96290.63;5012444;28;20247;-62
2023/07/28 01:43:55;;;;;;;6.77;6.03;;;;;;;14.43;100.00;96289.94;4932492;28;20369;-62
2023/07/28 01:46:23;;;;;;;6.37;5.97;;;;;;;14.44;100.00;96290.78;4983753;28;21032;-62
2023/07/28 01:48:51;;;;;;;7.17;6.67;;;;;;;14.43;100.00;96294.47;5008379;28;20437;-63
2023/07/28 01:51:19;;;;;;;7.50;6.90;;;;;;;14.43;100.00;96294.47;5013997;28;20228;-63
2023/07/28 01:53:47;;;;;;;7.63;7.03;;;;;;;14.39;100.00;96302.13;5010141;28;20632;-62
2023/07/28 01:56:15;;;;;;;8.10;7.50;;;;;;;14.39;100.00;96295.97;4941416;28;20356;-62
2023/07/28 01:58:43;;;;;;;7.47;6.97;;;;;;;14.44;100.00;96290.78;5016833;28;20784;-63
2023/07/28 02:01:13;;;;;;;7.20;6.60;;;;;;;14.41;100.00;96299.22;4937235;28;20323;-63
2023/07/28 02:03:41;;;;;;;8.53;7.80;;;;;;;14.34;100.00;96294.00;5009730;28;20521;-61
2023/07/28 02:06:08;;;;;;;7.93;7.33;;;;;;;14.48;100.00;96295.41;5003964;28;20688;-63
2023/07/28 02:08:36;;;;;;;8.37;7.67;;;;;;;14.50;100.00;96303.19;5012234;28;20311;-62
2023/07/28 02:11:04;;;;;;;8.60;7.80;;;;;;;14.48;100.00;96303.38;5007556;28;20471;-64
2023/07/28 02:13:32;;;;;;;7.03;6.60;;;;;;;14.52;100.00;96302.94;5012675;28;20236;-62
2023/07/28 02:16:00;;;;;;;7.73;7.13;;;;;;;14.53;100.00;96300.03;4884161;28;20258;-62
2023/07/28 02:18:29;;;;;;;7.83;7.23;;;;;;;14.53;100.00;96305.38;5005268;28;20204;-63
2023/07/28 02:20:56;;;;;;;7.67;7.13;;;;;;;14.54;100.00;96292.84;5007620;28;20260;-64
2023/07/28 02:23:24;;;;;;;7.83;7.23;;;;;;;14.53;100.00;96296.56;5012848;28;20216;-63
2023/07/28 02:25:52;;;;;;;6.83;6.33;;;;;;;14.57;100.00;96297.72;5006868;28;20278;-63
2023/07/28 02:28:19;;;;;;;7.33;6.83;;;;;;;14.53;100.00;96297.38;5010944;28;20274;-64
2023/07/28 02:30:47;;;;;;;7.63;7.00;;;;;;;14.42;100.00;96291.00;5009088;28;20227;-63
2023/07/28 02:33:15;;;;;;;6.83;6.33;;;;;;;14.48;100.00;96283.94;5013342;28;20700;-63
2023/07/28 02:35:44;;;;;;;7.03;6.53;;;;;;;14.48;100.00;96290.06;4946034;28;20627;-64
2023/07/28 02:38:12;;;;;;;8.43;7.77;;;;;;;14.54;100.00;96284.84;5013807;28;20750;-64
2023/07/28 02:40:40;;;;;;;7.40;6.90;;;;;;;14.45;100.00;96279.06;5013169;28;20208;-64
2023/07/28 02:43:08;;;;;;;7.53;6.93;;;;;;;14.47;100.00;96285.78;5007930;28;20208;-63
2023/07/28 02:45:35;;;;;;;6.77;6.17;;;;;;;14.48;100.00;96274.06;4889593;28;20302;-63
2023/07/28 02:48:03;;;;;;;7.43;6.93;;;;;;;14.38;100.00;96283.69;5010689;28;20563;-63
2023/07/28 02:50:31;;;;;;;7.20;6.63;;;;;;;14.35;100.00;96290.28;5011003;28;20232;-63
2023/07/28 02:53:00;;;;;;;7.07;6.57;;;;;;;14.45;100.00;96289.72;5007246;28;20201;-63
2023/07/28 02:55:28;;;;;;;7.10;6.60;;;;;;;14.41;100.00;96293.91;5006113;28;20250;-64
2023/07/28 02:57:56;;;;;;;7.70;7.10;;;;;;;14.36;100.00;96293.75;5009348;28;20213;-64
2023/07/28 03:00:23;;;;;;;7.43;6.87;;;;;;;14.42;100.00;96282.19;5005719;28;20282;-63
2023/07/28 03:02:51;;;;;;;7.67;7.00;;;;;;;14.41;100.00;96277.91;5009635;28;20204;-63
2023/07/28 03:05:19;;;;;;;7.97;7.30;;;;;;;14.37;100.00;96277.56;5006153;28;20667;-63
2023/07/28 03:07:48;;;;;;;7.80;7.20;;;;;;;14.39;100.00;96282.63;5010476;28;20219;-64
2023/07/28 03:10:17;;;;;;;8.03;7.37;;;;;;;14.38;100.00;96281.00;4948981;28;20769;-65
2023/07/28 03:12:45;;;;;;;7.87;7.27;;;;;;;14.33;100.00;96279.84;5011857;28;20200;-63
2023/07/28 03:15:13;;;;;;;8.07;7.33;;;;;;;14.31;100.00;96276.59;4890501;28;21738;-61
2023/07/28 03:17:41;;;;;;;7.77;7.27;;;;;;;14.34;100.00;96283.34;4945832;28;21176;-62
2023/07/28 03:20:10;;;;;;;7.90;7.20;;;;;;;14.33;100.00;96282.53;5009648;28;20215;-61
2023/07/28 03:22:38;;;;;;;7.93;7.33;;;;;;;14.28;100.00;96278.94;5010957;28;20533;-62
2023/07/28 03:25:06;;;;;;;7.57;6.87;;;;;;;14.29;100.00;96272.56;5015222;28;20549;-62
2023/07/28 03:27:35;;;;;;;7.90;7.20;;;;;;;14.29;100.00;96273.38;5009413;28;20197;-64
2023/07/28 03:30:06;;;;;;;8.03;7.43;;;;;;;14.30;100.00;96282.97;5017807;28;20275;-62
2023/07/28 03:32:34;;;;;;;8.37;7.73;;;;;;;14.17;100.00;96272.53;5015100;28;20713;-62
2023/07/28 03:35:04;;;;;;;8.60;7.80;;;;;;;14.18;100.00;96285.63;5016774;28;20232;-62
2023/07/28 03:37:32;;;;;;;9.03;8.17;;;;;;;14.24;100.00;96278.56;5008553;28;20196;-62
2023/07/28 03:40:00;;;;;;;8.13;7.33;;;;;;;14.13;100.00;96261.53;5010723;28;20647;-62
2023/07/28 03:42:28;;;;;;;8.17;7.57;;;;;;;14.26;100.00;96281.03;4949281;28;20319;-62
2023/07/28 03:44:57;;;;;;;8.53;7.83;;;;;;;14.21;100.00;96287.03;5015467;28;20231;-62
2023/07/28 03:47:25;;;;;;;8.43;7.63;;;;;;;14.29;100.00;96284.03;4890760;28;20207;-63
2023/07/28 03:49:53;;;;;;;8.87;8.23;;;;;;;14.35;100.00;96290.28;5016278;28;20738;-61
2023/07/28 03:52:21;;;;;;;8.23;7.43;;;;;;;14.40;100.00;96290.41;5010545;28;20236;-62
2023/07/28 03:54:48;;;;;;;8.77;8.10;;;;;;;14.39;100.00;96294.13;5014914;28;20298;-62
2023/07/28 03:57:16;;;;;;;8.97;8.27;;;;;;;14.38;100.00;96289.00;4947765;28;20690;-62
2023/07/28 03:59:44;;;;;;;8.83;8.23;;;;;;;14.40;100.00;96295.75;5017792;28;20254;-62
2023/07/28 04:02:13;;;;;;;8.80;8.10;;;;;;;14.37;100.00;96293.53;5010182;28;20251;-62
2023/07/28 04:04:41;;;;;;;9.03;8.03;;;;;;;14.41;100.00;96288.56;5019350;28;20208;-63
2023/07/28 04:07:09;;;;;;;9.27;8.37;;;;;;;14.39;100.00;96287.97;5015617;28;20200;-62
2023/07/28 04:09:37;;;;;;;8.77;8.00;;;;;;;14.40;100.00;96282.41;5018783;28;20290;-61
2023/07/28 04:12:05;;;;;;;8.73;7.87;;;;;;;14.39;100.00;96280.78;4956601;28;20988;-62
2023/07/28 04:14:33;;;;;;;8.23;7.63;;;;;;;14.38;100.00;96278.34;5018630;28;20216;-62
2023/07/28 04:17:00;;;;;;;8.37;7.77;;;;;;;14.32;100.00;96277.44;4896664;28;22237;-64
2023/07/28 04:19:29;;;;;;;8.10;7.47;;;;;;;14.26;100.00;96291.69;5008400;28;20204;-64
2023/07/28 04:21:57;;;;;;;8.50;7.90;;;;;;;14.25;100.00;96290.84;5004518;28;20639;-63
2023/07/28 04:24:25;;;;;;;8.27;7.67;;;;;;;14.29;100.00;96293.88;5013218;28;20457;-62
2023/07/28 04:26:53;;;;;;;9.43;8.67;;;;;;;14.23;100.00;96292.13;5006475;28;20215;-62
2023/07/28 04:29:21;;;;;;;8.77;8.00;;;;;;;14.29;100.00;96307.22;5010768;28;20235;-62
2023/07/28 04:31:49;;;;;;;8.97;8.07;;;;;;;14.31;100.00;96311.25;5010113;28;20398;-63
2023/07/28 04:34:16;;;;;;;8.03;7.43;;;;;;;14.38;100.00;96320.97;5012824;28;20255;-64
2023/07/28 04:36:45;;;;;;;9.30;8.57;;;;;;;14.32;100.00;96320.06;5008451;28;20720;-64
2023/07/28 04:39:13;;;;;;;8.90;8.20;;;;;;;14.35;100.00;96324.09;5015746;28;20646;-64
2023/07/28 04:41:41;;;;;;;9.10;8.17;;;;;;;14.46;100.00;96326.00;5012583;28;20224;-62
2023/07/28 04:44:09;;;;;;;10.13;9.13;;;;;;;14.58;100.00;96318.81;5013139;28;20667;-62
2023/07/28 04:46:37;;;;;;;8.80;8.20;;;;;;;14.59;100.00;96304.44;4929617;28;21080;-63
2023/07/28 04:49:05;;;;;;;9.57;8.87;;;;;;;14.74;100.00;96312.03;4984934;28;20579;-63
2023/07/28 04:51:33;;;;;;;9.03;8.13;;;;;;;14.81;100.00;96305.75;5012328;28;20323;-63
2023/07/28 04:54:02;;;;;;;8.47;7.87;;;;;;;14.88;100.00;96303.78;5012727;28;20661;-63
2023/07/28 04:56:30;;;;;;;8.83;8.00;;;;;;;14.92;100.00;96310.25;5010473;28;20806;-63
2023/07/28 04:58:58;;;;;;;8.47;7.80;;;;;;;14.97;100.00;96299.72;5012675;28;20743;-63
2023/07/28 05:01:27;;;;;;;8.37;7.77;;;;;;;15.04;100.00;96296.91;5009539;28;20248;-63
2023/07/28 05:03:55;;;;;;;8.77;8.07;;;;;;;15.01;100.00;96292.88;5013034;28;20204;-63
2023/07/28 05:06:22;;;;;;;8.67;8.03;;;;;;;15.00;100.00;96288.59;5006679;28;20983;-62
2023/07/28 05:08:50;;;;;;;8.47;7.83;;;;;;;14.97;100.00;96286.41;5011616;28;20683;-63
2023/07/28 05:11:19;;;;;;;8.73;7.93;;;;;;;15.12;100.00;96291.22;5008465;28;20703;-63
2023/07/28 05:13:47;;;;;;;9.23;8.50;;;;;;;15.13;100.00;96298.16;5010170;28;20306;-62
2023/07/28 05:16:15;;;;;;;9.23;8.40;;;;;;;15.04;100.00;96292.41;5007459;28;20533;-65
2023/07/28 05:18:43;;;;;;;7.80;7.20;;;;;;;15.18;100.00;96300.97;4987041;28;20235;-64
2023/07/28 05:21:11;;;;;;;7.80;7.30;;;;;;;15.32;100.00;96290.81;4957979;28;20243;-65
2023/07/28 05:23:39;;;;;;;9.83;7.93;;;;;;;15.42;100.00;96298.22;5016904;28;20203;-64
2023/07/28 05:26:07;;;;;;;8.47;7.67;;;;;;;15.56;100.00;96297.97;5004773;28;20213;-64
2023/07/28 05:28:36;;;;;;;8.17;7.47;;;;;;;15.60;100.00;96293.78;5009943;28;20196;-64
2023/07/28 05:31:05;;;;;;;7.60;7.00;;;;;;;15.43;100.00;96285.72;5012088;28;20232;-65
2023/07/28 05:33:33;;;;;;;8.70;8.00;;;;;;;15.57;100.00;96292.38;5015676;28;20200;-63
2023/07/28 05:36:01;;;;;;;8.33;7.73;;;;;;;15.67;100.00;96293.63;4969286;28;20270;-62
2023/07/28 05:38:32;;;;;;;7.57;7.00;;;;;;;15.77;100.00;96293.81;5012731;28;20205;-64
2023/07/28 05:41:02;;;;;;;8.07;7.37;;;;;;;15.86;100.00;96294.22;5011246;28;20240;-64
2023/07/28 05:43:31;;;;;;;8.03;7.43;;;;;;;15.90;100.00;96292.72;5005126;28;20212;-64
2023/07/28 05:46:00;;;;;;;10.80;9.70;;;;;;;16.02;100.00;96290.00;5011588;28;20208;-64
2023/07/28 05:48:28;;;;;;;9.43;8.70;;;;;;;16.06;100.00;96285.78;5011436;28;20285;-64
2023/07/28 05:50:56;;;;;;;8.00;7.23;;;;;;;16.05;100.00;96276.97;5009569;28;20224;-65
2023/07/28 05:53:24;;;;;;;7.57;7.00;;;;;;;16.33;100.00;96288.66;5012219;28;20215;-64
2023/07/28 05:55:51;;;;;;;8.37;7.77;;;;;;;16.28;100.00;96290.44;4888068;28;20204;-63
2023/07/28 05:58:19;;;;;;;7.90;7.20;;;;;;;16.35;100.00;96288.41;5011486;28;20204;-64
2023/07/28 06:00:47;;;;;;;7.43;6.83;;;;;;;16.42;100.00;96291.72;5005015;28;20232;-64
2023/07/28 06:03:17;;;;;;;7.13;6.63;;;;;;;16.46;100.00;96298.19;5013385;28;20212;-64
2023/07/28 06:05:45;;;;;;;7.30;6.80;;;;;;;16.24;100.00;96287.44;4969267;28;20232;-64
2023/07/28 06:08:13;;;;;;;7.40;6.80;;;;;;;16.26;100.00;96297.88;5015207;28;20200;-64
2023/07/28 06:10:41;;;;;;;7.53;7.03;;;;;;;16.16;100.00;96288.66;5010090;28;20228;-64
2023/07/28 06:13:09;;;;;;;7.33;6.83;;;;;;;16.06;100.00;96294.63;5011039;28;20712;-64
2023/07/28 06:15:39;;;;;;;7.90;7.20;;;;;;;16.02;100.00;96300.69;5008428;28;20311;-64
2023/07/28 06:18:07;;;;;;;7.23;6.63;;;;;;;16.16;100.00;96303.88;5012681;28;20317;-64
2023/07/28 06:20:36;;;;;;;7.20;6.70;;;;;;;16.00;100.00;96306.28;5006136;28;20228;-63
2023/07/28 06:23:04;;;;;;;6.70;6.20;;;;;;;16.14;100.00;96304.13;5009461;28;20217;-63
2023/07/28 06:25:32;;;;;;;7.30;6.80;;;;;;;16.19;100.00;96300.72;4888665;28;20725;-64
2023/07/28 06:28:00;;;;;;;7.40;6.90;;;;;;;16.20;100.00;96313.84;5000503;28;20201;-62
2023/07/28 06:30:27;;;;;;;7.13;6.63;;;;;;;16.20;100.00;96307.66;5006552;28;20294;-63
2023/07/28 06:32:55;;;;;;;9.13;8.43;;;;;;;16.31;100.00;96312.16;5011219;28;20266;-62
2023/07/28 06:35:23;;;;;;;9.57;8.80;;;;;;;16.39;100.00;96310.13;5006804;28;20640;-62
2023/07/28 06:37:52;;;;;;;7.70;7.00;;;;;;;16.47;100.00;96305.16;5015748;28;20405;-62
2023/07/28 06:40:20;;;;;;;7.87;7.33;;;;;;;16.59;100.00;96315.78;4973770;28;20223;-64
2023/07/28 06:42:48;;;;;;;7.20;6.60;;;;;;;16.67;100.00;96319.91;5011861;28;20243;-62
2023/07/28 06:45:16;;;;;;;7.53;6.83;;;;;;;17.01;100.00;96333.28;5009905;28;20205;-63
2023/07/28 06:47:44;;;;;;;6.83;6.23;;;;;;;16.93;100.00;96337.16;5013518;28;20201;-62
2023/07/28 06:50:12;;;;;;;7.33;6.83;;;;;;;16.70;100.00;96340.81;5008706;28;20227;-62
2023/07/28 06:52:40;;;;;;;7.10;6.57;;;;;;;16.90;100.00;96334.97;5014723;28;20211;-63
2023/07/28 06:55:09;;;;;;;7.43;6.73;;;;;;;17.00;100.00;96322.81;4885086;28;20244;-62
2023/07/28 06:57:37;;;;;;;8.23;6.93;;;;;;;17.31;100.00;96324.06;5008318;28;20252;-63
2023/07/28 07:00:09;;;;;;;7.23;6.50;;;;;;;17.57;100.00;96323.56;5007834;28;20212;-63
2023/07/28 07:02:37;;;;;;;7.37;6.63;;;;;;;17.75;100.00;96317.84;5013096;28;20254;-63
2023/07/28 07:05:06;;;;;;;6.60;6.17;;;;;;;17.89;100.00;96318.28;5009492;28;20228;-63
2023/07/28 07:07:34;;;;;;;7.27;6.60;;;;;;;17.85;100.00;96319.84;5010614;28;20315;-62
2023/07/28 07:10:02;;;;;;;6.60;6.20;;;;;;;17.97;100.00;96313.53;5009295;28;20228;-63
2023/07/28 07:12:31;;;;;;;6.77;6.20;;;;;;;18.13;100.00;96312.66;5009441;28;20631;-62
2023/07/28 07:14:59;;;;;;;8.83;7.20;;;;;;;18.27;100.00;96306.88;4973646;28;20623;-62
2023/07/28 07:17:27;;;;;;;7.30;6.80;;;;;;;18.33;100.00;96300.47;5015320;28;20733;-65
2023/07/28 07:19:55;;;;;;;7.07;6.47;;;;;;;18.63;100.00;96301.78;5007805;28;20204;-63
2023/07/28 07:22:22;;;;;;;6.37;5.97;;;;;;;18.94;100.00;96299.31;5010348;28;20809;-65
2023/07/28 07:24:50;;;;;;;8.43;5.90;;;;;;;19.20;100.00;96311.00;5011427;28;20208;-63
2023/07/28 07:27:18;;;;;;;6.03;5.53;;;;;;;18.66;100.00;96306.63;5009622;28;20458;-61
2023/07/28 07:29:47;;;;;;;6.70;6.13;;;;;;;18.80;100.00;96313.19;4902257;28;20225;-64
2023/07/28 07:32:16;;;;;;;6.07;5.57;;;;;;;19.11;100.00;96319.81;5015694;28;20306;-63
2023/07/28 07:34:44;;;;;;;6.10;5.70;;;;;;;19.61;100.00;96315.75;5010851;28;20863;-63
2023/07/28 07:37:12;;;;;;;6.63;6.13;;;;;;;19.85;100.00;96309.91;5008295;28;20218;-62
2023/07/28 07:39:41;;;;;;;6.20;5.80;;;;;;;20.26;100.00;96309.19;5009042;28;20703;-62
2023/07/28 07:42:10;;;;;;;6.23;5.63;;;;;;;20.09;100.00;96306.75;5011933;28;20228;-64
2023/07/28 07:44:38;;;;;;;7.37;6.67;;;;;;;20.27;100.00;96308.13;5007990;28;20219;-63
2023/07/28 07:47:14;;;;;;;7.43;5.20;;;;;;;20.46;100.00;96308.41;5012748;28;20197;-62
2023/07/28 07:49:42;;;;;;;6.07;5.37;;;;;;;20.32;100.00;96310.03;4971011;28;20559;-62
2023/07/28 07:52:10;;;;;;;5.27;4.90;;;;;;;20.29;100.00;96305.97;5007023;28;20228;-63
2023/07/28 07:54:38;;;;;;;4.87;4.57;;;;;;;20.21;100.00;96315.38;5008344;28;20204;-62
2023/07/28 07:57:07;;;;;;;5.67;5.13;;;;;;;20.20;100.00;96313.75;5014322;28;20215;-64
2023/07/28 07:59:35;;;;;;;4.70;4.40;;;;;;;20.23;100.00;96321.28;5008289;28;20215;-62
2023/07/28 08:02:04;;;;;;;4.80;4.50;;;;;;;20.05;100.00;96324.50;5014271;28;20370;-62
2023/07/28 08:04:32;;;;;;;4.63;4.33;;;;;;;20.08;100.00;96326.66;4886768;28;20840;-64
2023/07/28 08:07:00;;;;;;;5.73;5.20;;;;;;;20.06;100.00;96326.91;5013079;28;20586;-62
2023/07/28 08:09:28;;;;;;;6.30;5.67;;;;;;;20.28;100.00;96338.53;5007903;28;20510;-62
2023/07/28 08:11:56;;;;;;;5.07;4.77;;;;;;;20.47;100.00;96339.59;5016824;28;20232;-62
2023/07/28 08:14:24;;;;;;;5.20;4.70;;;;;;;20.64;100.00;96338.53;5012484;28;20208;-63
2023/07/28 08:16:52;;;;;;;4.30;4.00;;;;;;;20.78;100.00;96336.09;5020835;28;20564;-65
2023/07/28 08:19:20;;;;;;;4.27;3.87;;;;;;;20.98;100.00;96343.38;5011140;28;20216;-63
2023/07/28 08:21:49;;;;;;;5.07;4.57;;;;;;;20.79;100.00;96338.56;5015296;28;20640;-63
2023/07/28 08:24:17;;;;;;;4.50;4.20;;;;;;;20.80;100.00;96340.19;4971697;28;20853;-61
2023/07/28 08:26:44;;;;;;;3.60;3.40;;;;;;;20.59;100.00;96355.50;5014996;28;20205;-63
2023/07/28 08:29:12;;;;;;;4.17;3.87;;;;;;;20.36;100.00;96346.88;5013784;28;20520;-63
2023/07/28 08:31:41;;;;;;;4.50;4.07;;;;;;;20.20;100.00;96353.31;5019081;28;20258;-62
2023/07/28 08:34:09;;;;;;;3.60;3.40;;;;;;;19.88;100.00;96352.38;5011794;28;20545;-63
2023/07/28 08:36:37;;;;;;;5.93;4.40;;;;;;;19.97;100.00;96355.41;5010359;28;20216;-62
2023/07/28 08:39:06;;;;;;;6.20;3.67;;;;;;;19.57;100.00;96360.34;4929704;28;20543;-62
2023/07/28 08:41:34;;;;;;;3.80;3.50;;;;;;;19.53;100.00;96368.13;4985122;28;20258;-63
2023/07/28 08:44:03;;;;;;;4.20;3.87;;;;;;;19.24;100.00;96373.88;5010075;28;20571;-63
2023/07/28 08:46:34;;;;;;;4.70;4.40;;;;;;;18.89;100.00;96369.06;5010639;28;20227;-63
2023/07/28 08:49:02;;;;;;;4.90;4.50;;;;;;;18.69;100.00;96378.56;5011959;28;20833;-63
2023/07/28 08:51:30;;;;;;;4.10;3.80;;;;;;;18.55;100.00;96386.22;5012791;28;20241;-62
2023/07/28 08:53:58;;;;;;;4.00;3.70;;;;;;;18.42;100.00;96390.16;4996664;28;20208;-63
2023/07/28 08:56:29;;;;;;;4.37;4.07;;;;;;;18.34;100.00;96377.16;4997206;28;20232;-63
2023/07/28 08:59:00;;;;;;;4.63;4.23;;;;;;;18.13;100.00;96403.78;5014884;28;20196;-61
2023/07/28 09:01:27;;;;;;;4.23;3.93;;;;;;;18.25;100.00;96403.66;5012292;28;20387;-63
2023/07/28 09:03:55;;;;;;;6.20;5.77;;;;;;;18.58;100.00;96382.22;5012665;28;20289;-64
2023/07/28 09:06:30;;;;;;;4.70;4.30;;;;;;;19.25;100.00;96404.22;5011273;28;20399;-64
2023/07/28 09:08:59;;;;;;;4.63;4.27;;;;;;;19.34;100.00;96381.19;4944196;28;20220;-62
2023/07/28 09:11:29;;;;;;;4.53;4.17;;;;;;;19.35;100.00;96400.81;4968367;28;20798;-63
2023/07/28 09:14:02;;;;;;;4.10;3.80;;;;;;;19.70;100.00;96399.38;5016409;28;20616;-64
2023/07/28 09:16:32;;;;;;;4.70;4.30;;;;;;;20.03;100.00;96400.03;5014539;28;20660;-64
2023/07/28 09:19:05;;;;;;;4.17;3.80;;;;;;;20.16;100.00;96406.00;5010596;28;20527;-64
2023/07/28 09:21:33;;;;;;;5.03;4.63;;;;;;;20.07;100.00;96403.03;5010680;28;20632;-63
2023/07/28 09:24:02;;;;;;;4.63;4.23;;;;;;;20.18;100.00;96403.88;4994568;28;20492;-63
2023/07/28 09:26:39;;;;;;;7.77;6.97;;;;;;;19.92;100.00;96407.28;4995884;28;20601;-63
2023/07/28 09:29:17;;;;;;;4.00;3.80;;;;;;;20.01;100.00;96402.19;5012034;28;20524;-64
2023/07/28 09:31:45;;;;;;;4.27;3.97;;;;;;;19.90;100.00;96401.38;5014676;28;20231;-63
2023/07/28 09:34:14;;;;;;;4.40;4.00;;;;;;;19.75;100.00;96401.25;5010866;28;20307;-64
2023/07/28 09:36:42;;;;;;;4.07;3.77;;;;;;;19.65;100.00;96399.31;5009891;28;20201;-63
2023/07/28 09:39:09;;;;;;;3.87;3.57;;;;;;;19.48;100.00;96396.81;5012657;28;20208;-63
2023/07/28 09:41:39;;;;;;;4.37;3.60;;;;;;;19.12;100.00;96407.34;5013887;28;20217;-62
2023/07/28 09:44:07;;;;;;;3.60;3.30;;;;;;;18.97;100.00;96400.78;4918496;28;20813;-64
2023/07/28 09:46:36;;;;;;;4.57;3.60;;;;;;;18.82;100.00;96411.41;4989148;28;20225;-63
2023/07/28 09:49:06;;;;;;;3.83;3.53;;;;;;;18.90;100.00;96409.03;5015865;28;20451;-62
2023/07/28 09:51:35;;;;;;;3.87;3.67;;;;;;;19.12;100.00;96408.16;5010550;28;20228;-62
2023/07/28 09:54:06;;;;;;;3.83;3.63;;;;;;;19.63;100.00;96409.53;5009706;28;20307;-63
2023/07/28 09:56:34;;;;;;;4.53;4.23;;;;;;;20.10;100.00;96410.56;5010399;28;20619;-63
2023/07/28 09:59:06;;;;;;;3.80;3.53;;;;;;;20.03;100.00;96394.66;4993655;28;20668;-61
2023/07/28 10:01:34;;;;;;;3.27;3.03;;;;;;;20.24;100.00;96408.97;5002202;28;20232;-63
2023/07/28 10:04:02;;;;;;;3.83;3.53;;;;;;;20.89;100.00;96406.94;5008372;28;20225;-64
2023/07/28 10:06:31;;;;;;;3.60;3.40;;;;;;;21.45;100.00;96407.94;5010773;28;20291;-63
2023/07/28 10:08:59;;;;;;;3.47;3.27;;;;;;;21.55;100.00;96397.94;5013674;28;20208;-63
2023/07/28 10:11:28;;;;;;;3.53;2.87;;;;;;;21.17;100.00;96391.28;5010846;28;22320;-62
2023/07/28 10:13:56;;;;;;;3.20;3.00;;;;;;;20.23;100.00;96393.91;4948036;28;20774;-63
2023/07/28 10:16:32;;;;;;;3.20;2.90;;;;;;;19.89;100.00;96418.53;4963721;28;20263;-63
2023/07/28 10:19:00;;;;;;;2.63;2.43;;;;;;;19.53;100.00;96415.69;5012505;28;20197;-62
2023/07/28 10:21:29;;;;;;;3.23;3.03;;;;;;;19.14;100.00;96418.66;4964782;28;20865;-62
2023/07/28 10:23:57;;;;;;;3.40;3.20;;;;;;;19.07;100.00;96414.28;5010371;28;21518;-62
2023/07/28 10:26:38;;;;;;;3.07;2.87;;;;;;;19.37;100.00;96428.22;5011630;28;20224;-62
2023/07/28 10:29:10;;;;;;;2.87;2.77;;;;;;;19.36;100.00;96427.38;5013957;28;20315;-63
2023/07/28 10:31:50;;;;;;;2.63;2.53;;;;;;;20.13;100.00;96428.84;4961766;28;20260;-62
2023/07/28 10:34:18;;;;;;;4.47;4.17;;;;;;;21.05;100.00;96416.63;5015426;28;20204;-64
2023/07/28 10:36:46;;;;;;;3.20;3.00;;;;;;;21.72;100.00;96428.38;5004812;28;20209;-64
2023/07/28 10:39:16;;;;;;;2.93;2.80;;;;;;;21.82;100.00;96415.66;5014752;28;20395;-63
2023/07/28 10:42:04;;;;;;;2.47;2.37;;;;;;;22.06;100.00;96416.91;5007622;28;20290;-65
2023/07/28 10:44:32;;;;;;;2.70;2.60;;;;;;;22.37;100.00;96414.06;5008274;28;20738;-63
2023/07/28 10:47:02;;;;;;;2.90;2.80;;;;;;;22.70;100.00;96407.09;4884791;28;20897;-63
2023/07/28 10:49:30;;;;;;;2.83;2.63;;;;;;;22.23;100.00;96411.97;5015336;28;20196;-64
2023/07/28 10:51:57;;;;;;;2.83;2.63;;;;;;;22.07;100.00;96405.84;4949266;28;20236;-62
2023/07/28 10:54:25;;;;;;;2.80;2.70;;;;;;;22.35;100.00;96413.53;5012387;28;20204;-62
2023/07/28 10:56:52;;;;;;;2.63;2.43;;;;;;;22.68;100.00;96406.59;5006890;28;20212;-62
2023/07/28 10:59:21;;;;;;;2.30;2.20;;;;;;;21.89;100.00;96410.00;5014933;28;20388;-60
2023/07/28 11:01:51;;;;;;;2.50;2.40;;;;;;;21.90;100.00;96413.47;5008088;28;20233;-63
2023/07/28 11:04:23;;;;;;;2.77;2.63;;;;;;;21.62;100.00;96415.72;5012365;28;20745;-62
2023/07/28 11:06:51;;;;;;;2.97;2.77;;;;;;;21.40;100.00;96416.84;4955310;28;20684;-61
2023/07/28 11:09:22;;;;;;;2.60;2.40;;;;;;;20.93;100.00;96416.91;5012832;28;20678;-62
2023/07/28 11:11:50;;;;;;;2.97;2.77;;;;;;;20.66;100.00;96422.53;5005999;28;20231;-61
2023/07/28 11:14:18;;;;;;;2.90;2.80;;;;;;;20.69;100.00;96424.66;5012772;28;20270;-63
2023/07/28 11:16:47;;;;;;;2.40;2.30;;;;;;;20.70;100.00;96428.97;5006168;28;20869;-64
2023/07/28 11:19:17;;;;;;;2.93;2.73;;;;;;;20.54;100.00;96430.84;5013658;28;20212;-64
2023/07/28 11:21:50;;;;;;;3.03;2.83;;;;;;;20.83;100.00;96430.34;4889375;28;20224;-63
2023/07/28 11:24:19;;;;;;;3.30;3.00;;;;;;;20.70;100.00;96431.66;5010469;28;20829;-61
2023/07/28 11:26:47;;;;;;;3.03;2.87;;;;;;;20.80;100.00;96437.09;5003300;28;20200;-63
2023/07/28 11:29:16;;;;;;;2.50;2.40;;;;;;;20.94;100.00;96431.16;5011332;28;20219;-63
2023/07/28 11:31:44;;;;;;;3.27;3.00;;;;;;;21.27;100.00;96431.69;5008357;28;20264;-62